createdAt,value
2023-03-26T00:01:23.893Z,7.87
2023-03-26T00:03:55.356Z,7.83
2023-03-26T00:06:23.786Z,7.98
2023-03-26T00:08:51.626Z,7.92
2023-03-26T00:11:21.079Z,7.90
2023-03-26T00:13:48.202Z,7.97
2023-03-26T00:16:17.621Z,7.92
2023-03-26T00:18:45.067Z,7.88
2023-03-26T00:21:28.145Z,7.99
2023-03-26T00:24:01.337Z,7.87
2023-03-26T00:26:29.804Z,7.86
2023-03-26T00:28:57.693Z,7.88
2023-03-26T00:31:24.730Z,7.82
2023-03-26T00:33:54.480Z,7.84
2023-03-26T00:36:22.515Z,7.91
2023-03-26T00:38:49.447Z,7.87
2023-03-26T00:41:18.120Z,7.84
2023-03-26T00:43:46.821Z,7.91
2023-03-26T00:46:13.928Z,7.94
2023-03-26T00:48:45.846Z,7.88
2023-03-26T00:51:15.695Z,7.92
2023-03-26T00:53:44.646Z,7.87
2023-03-26T00:56:12.066Z,7.85
2023-03-26T00:58:39.655Z,7.82
2023-03-26T01:01:13.971Z,7.83
2023-03-26T01:03:50.164Z,7.86
2023-03-26T01:06:27.961Z,7.79
2023-03-26T01:09:00.400Z,7.76
2023-03-26T01:11:31.179Z,7.75
2023-03-26T01:13:59.646Z,7.75
2023-03-26T01:16:31.522Z,7.81
2023-03-26T01:18:59.039Z,7.82
2023-03-26T01:21:30.520Z,7.75
2023-03-26T01:24:08.561Z,7.75
2023-03-26T01:26:54.293Z,7.67
2023-03-26T01:29:33.512Z,7.66
2023-03-26T01:32:20.866Z,7.72
2023-03-26T01:35:15.989Z,7.65
2023-03-26T01:38:01.470Z,7.69
2023-03-26T01:40:43.150Z,7.63
2023-03-26T01:43:27.924Z,7.54
2023-03-26T01:45:56.616Z,7.49
2023-03-26T01:48:31.709Z,7.40
2023-03-26T01:50:58.969Z,7.43
2023-03-26T01:53:26.374Z,7.39
2023-03-26T01:56:11.129Z,7.37
2023-03-26T01:59:16.503Z,7.36
2023-03-26T02:02:07.245Z,7.34
2023-03-26T02:04:55.126Z,7.29
2023-03-26T02:07:29.853Z,7.28
2023-03-26T02:10:02.301Z,7.42
2023-03-26T02:12:30.200Z,7.44
2023-03-26T02:15:00.309Z,7.47
2023-03-26T02:17:30.297Z,7.45
2023-03-26T02:19:57.485Z,7.51
2023-03-26T02:22:30.128Z,7.55
2023-03-26T02:24:58.226Z,7.50
2023-03-26T02:27:25.083Z,7.43
2023-03-26T02:29:52.095Z,7.45
2023-03-26T02:32:21.318Z,7.41
2023-03-26T02:34:47.953Z,7.38
2023-03-26T02:37:14.769Z,7.36
2023-03-26T02:39:43.004Z,7.42
2023-03-26T02:42:17.667Z,7.41
2023-03-26T02:44:48.052Z,7.41
2023-03-26T02:47:17.551Z,7.43
2023-03-26T02:49:53.261Z,7.44
2023-03-26T02:52:40.255Z,7.42
2023-03-26T02:55:07.623Z,7.44
2023-03-26T02:57:35.122Z,7.52
2023-03-26T03:00:15.414Z,7.54
2023-03-26T03:02:48.253Z,7.52
2023-03-26T03:05:32.309Z,7.51
2023-03-26T03:08:19.026Z,7.52
2023-03-26T03:11:13.415Z,7.50
2023-03-26T03:13:48.134Z,7.48
2023-03-26T03:16:21.835Z,7.49
2023-03-26T03:18:54.652Z,7.47
2023-03-26T03:21:28.084Z,7.41
2023-03-26T03:24:00.209Z,7.38
2023-03-26T03:26:30.209Z,7.37
2023-03-26T03:28:59.998Z,7.37
2023-03-26T03:31:27.173Z,7.35
2023-03-26T03:33:59.435Z,7.36
2023-03-26T03:36:33.284Z,7.36
2023-03-26T03:39:20.691Z,7.35
2023-03-26T03:41:47.479Z,7.36
2023-03-26T03:44:15.845Z,7.38
2023-03-26T03:46:42.714Z,7.39
2023-03-26T03:49:09.591Z,7.38
2023-03-26T03:51:37.784Z,7.37
2023-03-26T03:54:12.701Z,7.29
2023-03-26T03:56:49.176Z,7.32
2023-03-26T03:59:34.354Z,7.33
2023-03-26T04:02:03.835Z,7.29
2023-03-26T04:04:53.395Z,7.31
2023-03-26T04:07:21.720Z,7.31
2023-03-26T04:10:15.841Z,7.31
2023-03-26T04:13:21.834Z,7.25
2023-03-26T04:16:09.136Z,7.24
2023-03-26T04:18:37.730Z,7.21
2023-03-26T04:21:12.858Z,7.19
2023-03-26T04:23:39.817Z,7.18
2023-03-26T04:26:19.985Z,7.15
2023-03-26T04:29:12.091Z,7.13
2023-03-26T04:31:38.954Z,7.13
2023-03-26T04:34:13.698Z,7.13
2023-03-26T04:36:54.642Z,7.09
2023-03-26T04:39:29.437Z,7.06
2023-03-26T04:42:20.551Z,6.99
2023-03-26T04:45:09.569Z,6.99
2023-03-26T04:47:37.278Z,7.00
2023-03-26T04:50:07.802Z,7.01
2023-03-26T04:52:36.643Z,6.99
2023-03-26T04:55:37.004Z,6.93
2023-03-26T04:58:14.214Z,6.92
2023-03-26T05:01:10.594Z,6.78
2023-03-26T05:03:42.057Z,6.78
2023-03-26T05:06:13.312Z,6.71
2023-03-26T05:08:42.047Z,6.70
2023-03-26T05:11:13.091Z,6.71
2023-03-26T05:13:43.064Z,6.76
2023-03-26T05:16:13.257Z,6.71
2023-03-26T05:18:44.845Z,6.67
2023-03-26T05:21:11.541Z,6.68
2023-03-26T05:23:39.847Z,6.66
2023-03-26T05:26:33.917Z,6.66
2023-03-26T05:29:03.025Z,6.62
2023-03-26T05:31:33.903Z,6.63
2023-03-26T05:34:02.168Z,6.63
2023-03-26T05:36:29.083Z,6.67
2023-03-26T05:39:18.766Z,6.69
2023-03-26T05:42:07.997Z,6.69
2023-03-26T05:45:10.187Z,6.69
2023-03-26T05:47:37.198Z,6.65
2023-03-26T05:50:06.343Z,6.64
2023-03-26T05:52:35.179Z,6.68
2023-03-26T05:55:22.114Z,6.73
2023-03-26T05:58:07.381Z,6.77
2023-03-26T06:01:02.763Z,6.75
2023-03-26T06:03:40.734Z,6.82
2023-03-26T06:06:17.351Z,6.87
2023-03-26T06:09:01.976Z,6.85
2023-03-26T06:11:29.897Z,6.86
2023-03-26T06:13:56.594Z,6.88
2023-03-26T06:16:26.365Z,6.88
2023-03-26T06:18:59.979Z,6.87
2023-03-26T06:21:56.124Z,6.96
2023-03-26T06:24:28.067Z,7.02
2023-03-26T06:26:57.720Z,6.96
2023-03-26T06:29:42.854Z,6.88
2023-03-26T06:32:45.010Z,6.87
2023-03-26T06:35:17.823Z,6.84
2023-03-26T06:37:44.657Z,6.87
2023-03-26T06:40:12.702Z,6.89
2023-03-26T06:43:07.478Z,6.86
2023-03-26T06:45:53.233Z,6.82
2023-03-26T06:48:38.995Z,6.83
2023-03-26T06:51:18.149Z,6.90
2023-03-26T06:54:03.580Z,6.99
2023-03-26T06:56:49.098Z,7.16
2023-03-26T06:59:41.980Z,7.22
2023-03-26T07:02:27.790Z,7.18
2023-03-26T07:05:13.380Z,7.29
2023-03-26T07:08:16.170Z,7.27
2023-03-26T07:11:01.303Z,7.19
2023-03-26T07:13:56.888Z,7.02
2023-03-26T07:16:42.339Z,7.01
2023-03-26T07:19:27.979Z,7.13
2023-03-26T07:21:55.466Z,7.20
2023-03-26T07:24:42.554Z,7.24
2023-03-26T07:27:50.254Z,7.28
2023-03-26T07:30:37.956Z,7.26
2023-03-26T07:33:31.973Z,7.23
2023-03-26T07:36:30.223Z,7.31
2023-03-26T07:39:50.754Z,7.23
2023-03-26T07:42:56.490Z,7.20
2023-03-26T07:45:49.578Z,7.24
2023-03-26T07:48:44.756Z,7.28
2023-03-26T07:51:16.419Z,7.16
2023-03-26T07:53:54.066Z,7.24
2023-03-26T07:56:46.410Z,7.19
2023-03-26T07:59:50.285Z,7.25
2023-03-26T08:02:51.819Z,7.28
2023-03-26T08:06:03.377Z,7.29
2023-03-26T08:09:08.024Z,7.11
2023-03-26T08:11:47.396Z,7.13
2023-03-26T08:14:33.657Z,7.14
2023-03-26T08:17:31.077Z,7.17
2023-03-26T08:20:41.633Z,7.12
2023-03-26T08:23:34.378Z,7.12
2023-03-26T08:26:44.239Z,7.03
2023-03-26T08:29:18.268Z,6.98
2023-03-26T08:31:48.066Z,7.13
2023-03-26T08:34:15.175Z,7.01
2023-03-26T08:36:42.465Z,7.00
2023-03-26T08:39:09.278Z,6.97
2023-03-26T08:42:00.661Z,6.90
2023-03-26T08:44:47.931Z,6.93
2023-03-26T08:47:42.055Z,6.92
2023-03-26T08:50:33.804Z,6.93
2023-03-26T08:53:03.400Z,6.96
2023-03-26T08:55:57.014Z,6.89
2023-03-26T08:59:05.549Z,6.89
2023-03-26T09:02:03.076Z,6.95
2023-03-26T09:04:57.910Z,6.85
2023-03-26T09:07:47.912Z,6.79
2023-03-26T09:10:50.805Z,6.77
2023-03-26T09:13:56.307Z,6.94
2023-03-26T09:16:46.435Z,6.92
2023-03-26T09:19:34.229Z,6.95
2023-03-26T09:22:25.267Z,6.89
2023-03-26T09:25:30.132Z,7.10
2023-03-26T09:27:59.518Z,7.23
2023-03-26T09:31:00.241Z,7.14
2023-03-26T09:33:36.942Z,7.34
2023-03-26T09:36:21.867Z,7.38
2023-03-26T09:39:05.408Z,7.26
2023-03-26T09:41:50.069Z,7.60
2023-03-26T09:44:35.688Z,7.77
2023-03-26T09:47:21.793Z,7.94
2023-03-26T09:50:24.856Z,8.42
2023-03-26T09:53:03.071Z,7.73
2023-03-26T09:55:45.387Z,8.11
2023-03-26T09:58:33.548Z,7.96
2023-03-26T10:01:18.384Z,7.90
2023-03-26T10:03:51.178Z,7.75
2023-03-26T10:06:33.262Z,8.12
2023-03-26T10:09:18.177Z,8.38
2023-03-26T10:11:58.652Z,8.23
2023-03-26T10:14:35.865Z,8.19
2023-03-26T10:17:16.938Z,8.06
2023-03-26T10:19:54.605Z,8.24
2023-03-26T10:22:34.862Z,8.25
2023-03-26T10:25:13.329Z,8.01
2023-03-26T10:28:37.273Z,8.20
2023-03-26T10:31:36.293Z,8.10
2023-03-26T10:34:35.460Z,8.12
2023-03-26T10:37:29.761Z,8.04
2023-03-26T10:40:15.235Z,8.07
2023-03-26T10:43:03.353Z,8.09
2023-03-26T10:46:03.186Z,8.10
2023-03-26T10:49:04.534Z,8.22
2023-03-26T10:51:59.451Z,8.14
2023-03-26T10:55:00.975Z,8.04
2023-03-26T10:57:49.178Z,8.25
2023-03-26T11:00:25.637Z,8.26
2023-03-26T11:03:11.438Z,8.03
2023-03-26T11:05:47.970Z,8.05
2023-03-26T11:08:31.192Z,8.09
2023-03-26T11:11:09.967Z,7.89
2023-03-26T11:13:46.705Z,8.04
2023-03-26T11:16:25.749Z,8.13
2023-03-26T11:19:17.271Z,8.24
2023-03-26T11:21:56.406Z,8.73
2023-03-26T11:24:38.081Z,8.94
2023-03-26T11:27:23.707Z,8.59
2023-03-26T11:30:20.979Z,9.02
2023-03-26T11:32:52.008Z,8.91
2023-03-26T11:35:40.701Z,8.62
2023-03-26T11:38:19.520Z,8.77
2023-03-26T11:40:51.158Z,8.66
2023-03-26T11:43:36.787Z,8.86
2023-03-26T11:46:08.443Z,9.15
2023-03-26T11:48:42.029Z,9.17
2023-03-26T11:51:14.850Z,9.11
2023-03-26T11:53:47.153Z,8.98
2023-03-26T11:56:15.236Z,9.03
2023-03-26T11:59:05.434Z,9.08
2023-03-26T12:01:55.678Z,9.32
2023-03-26T12:04:29.405Z,9.60
2023-03-26T12:07:09.670Z,9.83
2023-03-26T12:09:36.986Z,10.02
2023-03-26T12:12:05.181Z,9.98
2023-03-26T12:14:35.615Z,9.93
2023-03-26T12:17:11.773Z,10.08
2023-03-26T12:19:44.241Z,10.48
2023-03-26T12:22:36.469Z,10.07
2023-03-26T12:25:16.337Z,10.29
2023-03-26T12:27:50.562Z,10.18
2023-03-26T12:30:26.010Z,10.87
2023-03-26T12:32:57.862Z,10.87
2023-03-26T12:35:27.896Z,11.11
2023-03-26T12:38:33.494Z,11.78
2023-03-26T12:44:41.859Z,11.32
2023-03-26T12:44:52.752Z,11.45
2023-03-26T12:47:58.862Z,11.25
2023-03-26T12:50:06.067Z,11.29
2023-03-26T12:53:03.172Z,11.35
2023-03-26T12:55:38.057Z,11.02
2023-03-26T12:58:21.238Z,10.88
2023-03-26T13:01:28.512Z,11.13
2023-03-26T13:04:10.289Z,10.91
2023-03-26T13:07:00.353Z,11.17
2023-03-26T13:09:29.194Z,11.18
2023-03-26T13:12:04.965Z,11.71
2023-03-26T13:15:19.437Z,11.73
2023-03-26T13:18:08.536Z,11.53
2023-03-26T13:20:49.764Z,11.39
2023-03-26T13:23:27.876Z,11.95
2023-03-26T13:26:18.899Z,12.05
2023-03-26T13:28:59.587Z,12.22
2023-03-26T13:31:40.032Z,12.07
2023-03-26T13:34:27.960Z,11.85
2023-03-26T13:37:23.131Z,11.67
2023-03-26T13:40:18.337Z,11.35
2023-03-26T13:43:03.784Z,11.40
2023-03-26T13:45:52.120Z,11.25
2023-03-26T13:48:27.230Z,11.29
2023-03-26T13:51:02.081Z,10.58
2023-03-26T13:53:37.011Z,9.71
2023-03-26T13:56:06.435Z,9.30
2023-03-26T13:58:43.212Z,9.42
2023-03-26T14:01:16.963Z,9.58
2023-03-26T14:03:56.086Z,9.28
2023-03-26T14:06:46.713Z,9.06
2023-03-26T14:09:16.363Z,9.22
2023-03-26T14:11:55.489Z,9.32
2023-03-26T14:14:31.168Z,9.51
2023-03-26T14:17:16.649Z,9.66
2023-03-26T14:20:08.288Z,9.82
2023-03-26T14:22:37.639Z,10.01
2023-03-26T14:25:32.455Z,9.82
2023-03-26T14:28:10.386Z,9.53
2023-03-26T14:30:43.016Z,9.53
2023-03-26T14:33:27.422Z,9.72
2023-03-26T14:36:00.857Z,9.58
2023-03-26T14:38:56.872Z,9.58
2023-03-26T14:41:42.910Z,9.66
2023-03-26T14:44:30.820Z,9.69
2023-03-26T14:47:23.232Z,9.77
2023-03-26T14:50:11.845Z,9.62
2023-03-26T14:52:50.192Z,9.54
2023-03-26T14:55:35.571Z,9.43
2023-03-26T14:58:34.254Z,9.48
2023-03-26T15:01:23.111Z,9.55
2023-03-26T15:04:08.451Z,9.51
2023-03-26T15:06:45.401Z,9.10
2023-03-26T15:09:37.539Z,9.00
2023-03-26T15:12:14.641Z,8.85
2023-03-26T15:14:56.606Z,8.81
2023-03-26T15:18:00.689Z,8.74
2023-03-26T15:20:48.203Z,8.75
2023-03-26T15:23:39.372Z,8.87
2023-03-26T15:26:24.723Z,8.69
2023-03-26T15:29:15.636Z,8.59
2023-03-26T15:31:54.134Z,8.78
2023-03-26T15:34:39.448Z,8.77
2023-03-26T15:37:15.384Z,8.95
2023-03-26T15:40:36.523Z,8.68
2023-03-26T15:43:11.124Z,8.57
2023-03-26T15:46:00.033Z,8.39
2023-03-26T15:48:40.317Z,8.40
2023-03-26T15:51:20.929Z,8.66
2023-03-26T15:54:14.783Z,8.86
2023-03-26T15:56:58.125Z,8.72
2023-03-26T16:00:01.735Z,8.62
2023-03-26T16:03:13.213Z,8.60
2023-03-26T16:06:10.729Z,8.61
2023-03-26T16:09:11.761Z,8.50
2023-03-26T16:11:58.020Z,8.68
2023-03-26T16:14:43.151Z,8.75
2023-03-26T16:17:23.396Z,8.64
2023-03-26T16:20:32.832Z,8.48
2023-03-26T16:23:01.840Z,8.62
2023-03-26T16:25:33.544Z,8.43
2023-03-26T16:28:12.580Z,8.40
2023-03-26T16:30:39.621Z,8.36
2023-03-26T16:33:15.930Z,8.39
2023-03-26T16:36:03.599Z,8.22
2023-03-26T16:38:54.802Z,8.07
2023-03-26T16:41:30.063Z,8.17
2023-03-26T16:43:59.915Z,8.09
2023-03-26T16:46:50.671Z,8.07
2023-03-26T16:50:08.210Z,8.31
2023-03-26T16:53:01.141Z,8.19
2023-03-26T16:55:31.122Z,8.14
2023-03-26T16:58:15.446Z,8.10
2023-03-26T17:00:48.830Z,8.20
2023-03-26T17:03:35.567Z,8.15
2023-03-26T17:06:12.024Z,7.96
2023-03-26T17:08:46.692Z,7.93
2023-03-26T17:11:47.471Z,7.97
2023-03-26T17:14:35.553Z,8.00
2023-03-26T17:17:46.688Z,7.98
2023-03-26T17:20:26.481Z,7.98
2023-03-26T17:23:39.724Z,8.08
2023-03-26T17:27:03.020Z,8.02
2023-03-26T17:29:41.716Z,8.01
2023-03-26T17:32:15.446Z,7.85
2023-03-26T17:34:46.940Z,8.01
2023-03-26T17:37:17.004Z,7.92
2023-03-26T17:39:43.781Z,7.88
2023-03-26T17:42:13.892Z,7.91
2023-03-26T17:44:44.832Z,7.90
2023-03-26T17:47:26.878Z,7.94
2023-03-26T17:50:02.745Z,7.84
2023-03-26T17:53:07.396Z,7.91
2023-03-26T17:55:38.990Z,7.98
2023-03-26T17:58:08.023Z,7.93
2023-03-26T18:00:44.782Z,7.96
2023-03-26T18:03:36.177Z,8.02
2023-03-26T18:06:40.939Z,7.99
2023-03-26T18:09:11.377Z,7.75
2023-03-26T18:11:47.127Z,7.71
2023-03-26T18:14:31.307Z,7.76
2023-03-26T18:17:00.636Z,7.65
2023-03-26T18:19:27.553Z,7.67
2023-03-26T18:21:59.524Z,7.77
2023-03-26T18:24:37.642Z,7.79
2023-03-26T18:27:21.350Z,7.77
2023-03-26T18:29:57.270Z,7.72
2023-03-26T18:32:33.835Z,7.73
2023-03-26T18:35:21.464Z,7.73
2023-03-26T18:37:53.502Z,7.70
2023-03-26T18:40:23.015Z,7.61
2023-03-26T18:42:56.001Z,7.67
2023-03-26T18:45:25.612Z,7.66
2023-03-26T18:47:54.717Z,7.63
2023-03-26T18:50:31.080Z,7.53
2023-03-26T18:53:00.240Z,7.61
2023-03-26T18:55:28.837Z,7.51
2023-03-26T18:57:56.502Z,7.51
2023-03-26T19:00:26.242Z,7.36
2023-03-26T19:03:04.440Z,7.29
2023-03-26T19:05:33.915Z,7.29
2023-03-26T19:08:03.775Z,7.18
2023-03-26T19:10:33.258Z,7.14
2023-03-26T19:13:04.339Z,7.13
2023-03-26T19:15:33.981Z,7.18
2023-03-26T19:18:14.584Z,7.14
2023-03-26T19:20:47.681Z,7.08
2023-03-26T19:23:18.338Z,7.20
2023-03-26T19:25:48.585Z,7.19
2023-03-26T19:28:19.650Z,7.26
2023-03-26T19:30:46.638Z,7.27
2023-03-26T19:33:18.444Z,7.08
2023-03-26T19:35:51.967Z,7.12
2023-03-26T19:38:27.788Z,7.11
2023-03-26T19:40:56.759Z,7.06
2023-03-26T19:43:25.888Z,7.12
2023-03-26T19:46:00.545Z,6.98
2023-03-26T19:48:46.746Z,6.94
2023-03-26T19:51:34.605Z,6.96
2023-03-26T19:54:04.515Z,7.05
2023-03-26T19:56:31.790Z,7.06
2023-03-26T19:58:59.365Z,6.87
2023-03-26T20:01:29.382Z,6.84
2023-03-26T20:04:00.098Z,6.92
2023-03-26T20:06:42.485Z,6.80
2023-03-26T20:09:11.889Z,6.80
2023-03-26T20:11:39.982Z,6.98
2023-03-26T20:14:17.526Z,7.00
2023-03-26T20:16:45.251Z,6.91
2023-03-26T20:19:14.342Z,6.84
2023-03-26T20:21:42.172Z,6.84
2023-03-26T20:24:15.088Z,6.88
2023-03-26T20:26:42.562Z,6.90
2023-03-26T20:29:10.265Z,6.87
2023-03-26T20:31:38.291Z,6.77
2023-03-26T20:34:09.891Z,6.79
2023-03-26T20:36:36.866Z,6.82
2023-03-26T20:39:08.155Z,6.75
2023-03-26T20:41:38.264Z,6.65
2023-03-26T20:44:13.884Z,6.77
2023-03-26T20:46:41.720Z,6.74
2023-03-26T20:49:10.317Z,6.63
2023-03-26T20:51:38.465Z,6.46
2023-03-26T20:54:06.608Z,6.44
2023-03-26T20:56:37.762Z,6.54
2023-03-26T20:59:10.979Z,6.51
2023-03-26T21:01:38.828Z,6.47
2023-03-26T21:04:06.564Z,6.23
2023-03-26T21:06:33.303Z,6.34
2023-03-26T21:09:00.523Z,6.34
2023-03-26T21:11:39.923Z,6.16
2023-03-26T21:14:08.464Z,6.18
2023-03-26T21:16:37.570Z,6.09
2023-03-26T21:19:04.677Z,6.03
2023-03-26T21:22:07.438Z,6.02
2023-03-26T21:25:02.240Z,5.96
2023-03-26T21:27:58.075Z,5.89
2023-03-26T21:30:25.019Z,5.83
2023-03-26T21:32:52.198Z,5.60
2023-03-26T21:35:19.561Z,5.59
2023-03-26T21:37:48.921Z,5.71
2023-03-26T21:40:18.193Z,5.59
2023-03-26T21:42:51.138Z,5.60
2023-03-26T21:45:19.317Z,5.60
2023-03-26T21:47:46.496Z,5.63
2023-03-26T21:50:17.617Z,5.81
2023-03-26T21:52:47.807Z,5.66
2023-03-26T21:55:16.282Z,5.70
2023-03-26T21:57:45.985Z,5.71
2023-03-26T22:00:23.697Z,5.53
2023-03-26T22:03:07.400Z,5.65
2023-03-26T22:06:12.071Z,5.45
2023-03-26T22:08:42.162Z,5.49
2023-03-26T22:11:11.429Z,5.51
2023-03-26T22:13:39.052Z,5.67
2023-03-26T22:16:08.250Z,5.52
2023-03-26T22:18:35.636Z,5.59
2023-03-26T22:21:02.650Z,5.43
2023-03-26T22:23:36.135Z,5.37
2023-03-26T22:26:04.019Z,5.36
2023-03-26T22:28:31.345Z,5.35
2023-03-26T22:30:58.637Z,5.37
2023-03-26T22:33:25.657Z,5.22
2023-03-26T22:35:52.529Z,5.11
2023-03-26T22:38:19.474Z,5.05
2023-03-26T22:40:54.949Z,5.06
2023-03-26T22:43:21.736Z,4.96
2023-03-26T22:45:53.704Z,4.84
2023-03-26T22:48:24.085Z,4.91
2023-03-26T22:51:02.829Z,4.81
2023-03-26T22:53:31.008Z,4.75
2023-03-26T22:55:59.107Z,4.72
2023-03-26T22:58:27.296Z,4.72
2023-03-26T23:01:07.905Z,4.81
2023-03-26T23:03:35.998Z,4.65
2023-03-26T23:06:06.419Z,4.46
2023-03-26T23:08:34.526Z,4.55
2023-03-26T23:11:02.191Z,4.19
2023-03-26T23:13:28.907Z,3.97
2023-03-26T23:15:57.296Z,3.86
2023-03-26T23:18:24.564Z,3.96
2023-03-26T23:20:53.082Z,3.81
2023-03-26T23:23:27.452Z,3.75
2023-03-26T23:26:02.108Z,3.58
2023-03-26T23:28:33.545Z,3.60
2023-03-26T23:31:06.385Z,3.71
2023-03-26T23:33:35.607Z,3.57
2023-03-26T23:36:09.296Z,3.64
2023-03-26T23:38:43.614Z,3.27
2023-03-26T23:41:15.462Z,3.26
2023-03-26T23:43:53.848Z,3.23
2023-03-26T23:46:23.786Z,3.22
2023-03-26T23:48:51.378Z,3.19
2023-03-26T23:51:20.244Z,3.25
2023-03-26T23:53:49.503Z,3.27
2023-03-26T23:56:16.527Z,3.06
2023-03-26T23:58:43.314Z,2.91
